Time;durP1;ratioP1;P1;durP2;ratioP2;P2;SDS_P1;SDS_P2;PMS_P1;PMS_P2;Temp;Humidity;BMP_temperature;BMP_pressure;BME280_temperature;BME280_humidity;BME280_pressure;Samples;Min_cycle;Max_cycle;Signal;HPM_P1;HPM_P2
2023/12/18 00:01:36;;;;;;;65.43;29.35;;;;;;;;;;5026887;28;20017;-70
2023/12/18 00:04:03;;;;;;;65.55;28.08;;;;;;;;;;5040554;28;20025;-71
2023/12/18 00:06:29;;;;;;;67.18;28.27;;;;;;;;;;5039419;28;20052;-70
2023/12/18 00:08:54;;;;;;;69.30;28.63;;;;;;;;;;5036383;28;20036;-70
2023/12/18 00:11:19;;;;;;;70.97;30.77;;;;;;;;;;5026843;28;20043;-70
2023/12/18 00:13:44;;;;;;;70.78;29.95;;;;;;;;;;5028715;28;20270;-70
2023/12/18 00:16:10;;;;;;;67.68;29.75;;;;;;;;;;5037275;28;20071;-70
2023/12/18 00:18:35;;;;;;;61.65;26.73;;;;;;;;;;5039766;28;20021;-69
2023/12/18 00:21:00;;;;;;;63.90;27.75;;;;;;;;;;5024422;28;20029;-70
2023/12/18 00:23:26;;;;;;;62.83;27.60;;;;;;;;;;5038149;28;20068;-70
2023/12/18 00:25:51;;;;;;;65.32;27.65;;;;;;;;;;5036557;28;20034;-70
2023/12/18 00:28:16;;;;;;;65.40;27.97;;;;;;;;;;5025693;28;20037;-70
2023/12/18 00:30:41;;;;;;;65.35;28.58;;;;;;;;;;5034693;28;20833;-70
2023/12/18 00:33:07;;;;;;;63.55;29.13;;;;;;;;;;5028994;28;20021;-70
2023/12/18 00:35:32;;;;;;;64.60;27.80;;;;;;;;;;5037680;28;20036;-70
2023/12/18 00:37:57;;;;;;;63.25;27.42;;;;;;;;;;5034278;28;20096;-70
2023/12/18 00:40:23;;;;;;;67.72;29.38;;;;;;;;;;5039081;28;20024;-70
2023/12/18 00:42:48;;;;;;;69.32;30.20;;;;;;;;;;5036995;28;20028;-69
2023/12/18 00:45:16;;;;;;;65.00;28.48;;;;;;;;;;5040181;28;20655;-70
2023/12/18 00:47:42;;;;;;;65.90;28.43;;;;;;;;;;5040765;28;20477;-68
2023/12/18 00:50:09;;;;;;;68.43;29.55;;;;;;;;;;5020312;28;20036;-69
2023/12/18 00:52:35;;;;;;;68.43;27.17;;;;;;;;;;5037270;28;20044;-69
2023/12/18 00:55:01;;;;;;;62.40;28.92;;;;;;;;;;5023295;28;20100;-69
2023/12/18 00:57:26;;;;;;;67.20;28.67;;;;;;;;;;5016462;28;20107;-69
2023/12/18 00:59:51;;;;;;;63.92;28.08;;;;;;;;;;5036185;28;20044;-70
2023/12/18 01:02:16;;;;;;;72.43;28.97;;;;;;;;;;5036268;28;20044;-69
2023/12/18 01:04:42;;;;;;;67.07;29.52;;;;;;;;;;5035691;28;20339;-69
2023/12/18 01:07:07;;;;;;;74.13;29.73;;;;;;;;;;5037039;28;20040;-69
2023/12/18 01:09:33;;;;;;;67.00;29.02;;;;;;;;;;5050536;28;20037;-69
2023/12/18 01:11:59;;;;;;;72.47;30.20;;;;;;;;;;5025591;28;20470;-69
2023/12/18 01:14:24;;;;;;;67.93;29.33;;;;;;;;;;5050871;28;20148;-69
2023/12/18 01:16:51;;;;;;;73.15;29.33;;;;;;;;;;5035344;28;20040;-69
2023/12/18 01:19:17;;;;;;;67.78;28.67;;;;;;;;;;5037151;28;20495;-69
2023/12/18 01:21:42;;;;;;;68.53;29.23;;;;;;;;;;5037502;28;20056;-69
2023/12/18 01:24:07;;;;;;;69.17;30.60;;;;;;;;;;5024844;28;20033;-69
2023/12/18 01:26:35;;;;;;;72.73;30.93;;;;;;;;;;5035743;28;20274;-69
2023/12/18 01:29:00;;;;;;;73.18;30.27;;;;;;;;;;5037649;28;20274;-68
2023/12/18 01:31:26;;;;;;;72.55;29.33;;;;;;;;;;5032786;28;20025;-69
2023/12/18 01:33:52;;;;;;;67.72;30.15;;;;;;;;;;5036443;28;20056;-70
2023/12/18 01:36:17;;;;;;;67.57;29.92;;;;;;;;;;5034681;28;20535;-69
2023/12/18 01:38:43;;;;;;;70.63;29.92;;;;;;;;;;5026550;28;20033;-69
2023/12/18 01:41:08;;;;;;;78.82;30.17;;;;;;;;;;5038995;28;20029;-69
2023/12/18 01:43:34;;;;;;;67.25;29.65;;;;;;;;;;5037101;28;20104;-69
2023/12/18 01:46:00;;;;;;;67.88;29.77;;;;;;;;;;5035928;28;20037;-69
2023/12/18 01:48:26;;;;;;;69.10;28.85;;;;;;;;;;5035598;28;20025;-69
2023/12/18 01:50:55;;;;;;;65.63;28.75;;;;;;;;;;5035740;28;20083;-69
2023/12/18 01:53:25;;;;;;;67.38;28.70;;;;;;;;;;5036945;28;20061;-69
2023/12/18 01:55:50;;;;;;;74.18;30.08;;;;;;;;;;5040164;28;20605;-69
2023/12/18 01:58:16;;;;;;;66.10;28.88;;;;;;;;;;5042433;28;20099;-69
2023/12/18 02:00:41;;;;;;;70.72;29.40;;;;;;;;;;5045363;28;20070;-69
2023/12/18 02:03:08;;;;;;;73.10;30.02;;;;;;;;;;5053052;28;20125;-68
2023/12/18 02:05:33;;;;;;;70.22;30.65;;;;;;;;;;5066089;28;20025;-68
2023/12/18 02:07:59;;;;;;;69.40;29.90;;;;;;;;;;5066085;28;20034;-69
2023/12/18 02:10:25;;;;;;;73.45;29.55;;;;;;;;;;5067502;28;20262;-69
2023/12/18 02:12:50;;;;;;;72.55;28.13;;;;;;;;;;5049665;28;20040;-69
2023/12/18 02:15:15;;;;;;;65.85;28.17;;;;;;;;;;5038297;28;20191;-69
2023/12/18 02:17:41;;;;;;;67.78;29.58;;;;;;;;;;5029804;28;20483;-69
2023/12/18 02:20:07;;;;;;;65.25;27.95;;;;;;;;;;5042319;28;20491;-69
2023/12/18 02:22:43;;;;;;;71.97;28.38;;;;;;;;;;5042568;28;20037;-69
2023/12/18 02:25:08;;;;;;;68.53;29.45;;;;;;;;;;5023059;28;20033;-70
2023/12/18 02:27:33;;;;;;;65.55;28.05;;;;;;;;;;5038580;28;20088;-70
2023/12/18 02:29:59;;;;;;;69.35;29.08;;;;;;;;;;5038733;28;20036;-69
2023/12/18 02:32:24;;;;;;;67.57;28.70;;;;;;;;;;5038143;28;20115;-70
2023/12/18 02:34:49;;;;;;;65.20;28.27;;;;;;;;;;5039282;28;20317;-69
2023/12/18 02:37:15;;;;;;;68.05;27.95;;;;;;;;;;5037673;28;20033;-69
2023/12/18 02:39:40;;;;;;;63.42;28.05;;;;;;;;;;5037071;28;20037;-69
2023/12/18 02:42:05;;;;;;;68.93;29.47;;;;;;;;;;5039573;28;20059;-69
2023/12/18 02:44:31;;;;;;;69.72;28.83;;;;;;;;;;5038552;28;20275;-69
2023/12/18 02:46:56;;;;;;;73.00;28.67;;;;;;;;;;5041871;28;20020;-69
2023/12/18 02:49:21;;;;;;;64.38;27.27;;;;;;;;;;5037836;28;20045;-70
2023/12/18 02:51:48;;;;;;;60.33;26.87;;;;;;;;;;5040158;28;20075;-69
2023/12/18 02:54:14;;;;;;;66.45;27.38;;;;;;;;;;5038076;28;20281;-69
2023/12/18 02:56:39;;;;;;;60.42;26.25;;;;;;;;;;5037679;28;20032;-68
2023/12/18 02:59:04;;;;;;;61.47;26.40;;;;;;;;;;5039887;28;20045;-70
2023/12/18 03:01:30;;;;;;;62.47;26.47;;;;;;;;;;5028188;28;20039;-69
2023/12/18 03:03:55;;;;;;;63.10;26.60;;;;;;;;;;5042573;28;20319;-69
2023/12/18 03:06:20;;;;;;;55.83;24.53;;;;;;;;;;5039055;28;20723;-69
2023/12/18 03:08:45;;;;;;;64.20;26.23;;;;;;;;;;5038991;28;20285;-70
2023/12/18 03:11:11;;;;;;;59.22;26.05;;;;;;;;;;5037516;28;20386;-69
2023/12/18 03:13:36;;;;;;;57.60;24.20;;;;;;;;;;5038805;28;20067;-71
2023/12/18 03:16:01;;;;;;;54.88;24.13;;;;;;;;;;5037454;28;20036;-70
2023/12/18 03:18:27;;;;;;;57.03;23.88;;;;;;;;;;5020199;28;20060;-70
2023/12/18 03:20:52;;;;;;;63.58;25.23;;;;;;;;;;5036015;28;20083;-70
2023/12/18 03:23:17;;;;;;;60.63;25.08;;;;;;;;;;5038823;28;20064;-70
2023/12/18 03:25:42;;;;;;;56.50;24.42;;;;;;;;;;5038479;28;20029;-70
2023/12/18 03:28:08;;;;;;;54.17;24.07;;;;;;;;;;5041060;28;20131;-70
2023/12/18 03:30:33;;;;;;;55.15;23.83;;;;;;;;;;5039000;28;20614;-70
2023/12/18 03:32:59;;;;;;;56.05;23.92;;;;;;;;;;5026458;28;20029;-70
2023/12/18 03:35:24;;;;;;;56.03;24.55;;;;;;;;;;5039327;28;20017;-70
2023/12/18 03:37:50;;;;;;;60.83;24.75;;;;;;;;;;5037519;28;20502;-70
2023/12/18 03:40:15;;;;;;;55.72;24.40;;;;;;;;;;5035613;28;20568;-70
2023/12/18 03:42:41;;;;;;;60.58;24.52;;;;;;;;;;5028056;28;20034;-69
2023/12/18 03:45:06;;;;;;;53.65;23.92;;;;;;;;;;5038072;28;20032;-69
2023/12/18 03:47:32;;;;;;;58.38;24.83;;;;;;;;;;5038562;28;20071;-70
2023/12/18 03:49:57;;;;;;;53.13;23.63;;;;;;;;;;5025249;28;20037;-70
2023/12/18 03:52:22;;;;;;;56.50;24.08;;;;;;;;;;5037659;28;20122;-70
2023/12/18 03:54:47;;;;;;;63.20;24.77;;;;;;;;;;5024643;28;20029;-70
2023/12/18 03:57:13;;;;;;;56.60;23.60;;;;;;;;;;5038319;28;20739;-70
2023/12/18 03:59:38;;;;;;;57.17;24.45;;;;;;;;;;5037885;28;20031;-70
2023/12/18 04:02:03;;;;;;;56.35;23.65;;;;;;;;;;5026680;28;20407;-70
2023/12/18 04:04:29;;;;;;;56.57;24.10;;;;;;;;;;5037781;28;20123;-70
2023/12/18 04:06:54;;;;;;;56.15;23.75;;;;;;;;;;5038543;28;20832;-71
2023/12/18 04:09:19;;;;;;;60.53;23.95;;;;;;;;;;5033699;28;20021;-70
2023/12/18 04:11:44;;;;;;;55.57;24.70;;;;;;;;;;5036944;28;20029;-70
2023/12/18 04:14:10;;;;;;;53.78;23.25;;;;;;;;;;5035591;28;20250;-71
2023/12/18 04:16:35;;;;;;;56.38;24.48;;;;;;;;;;5038201;28;20463;-71
2023/12/18 04:19:00;;;;;;;60.85;24.63;;;;;;;;;;5036029;28;20047;-70
2023/12/18 04:21:26;;;;;;;1999.90;972.07;;;;;;;;;;5035407;28;20032;-71
2023/12/18 04:23:51;;;;;;;80.80;32.58;;;;;;;-1.92;nan;102593.00;5042516;28;20328;-71
2023/12/18 04:26:17;;;;;;;72.40;29.10;;;;;;;-2.05;nan;102582.56;5034718;28;20392;-70
2023/12/18 04:28:42;;;;;;;73.18;29.05;;;;;;;-2.04;nan;102604.03;5027133;28;20036;-71
2023/12/18 04:31:08;;;;;;;64.40;27.05;;;;;;;-2.14;nan;102603.72;5038282;28;20104;-71
2023/12/18 04:33:33;;;;;;;69.10;26.52;;;;;;;-2.28;nan;102598.53;5035691;28;20336;-70
2023/12/18 04:35:59;;;;;;;60.55;24.92;;;;;;;-2.34;nan;102604.88;5037458;28;20017;-70
2023/12/18 04:38:25;;;;;;;57.58;23.02;;;;;;;-2.43;nan;102597.63;5035265;28;20435;-70
2023/12/18 04:40:50;;;;;;;56.13;23.17;;;;;;;-2.47;nan;102586.63;5036743;28;20040;-71
2023/12/18 04:43:16;;;;;;;52.95;22.85;;;;;;;-2.54;nan;102582.75;5036221;28;20032;-70
2023/12/18 04:45:41;;;;;;;57.05;23.73;;;;;;;-2.48;nan;102594.50;5034078;28;20021;-71
2023/12/18 04:48:07;;;;;;;53.70;23.63;;;;;;;-2.54;nan;102587.06;5050706;28;20036;-71
2023/12/18 04:50:32;;;;;;;56.92;22.95;;;;;;;-2.58;nan;102586.44;5036705;28;20079;-70
2023/12/18 04:52:57;;;;;;;56.13;24.13;;;;;;;-2.61;nan;102590.00;5036476;28;20052;-71
2023/12/18 04:55:23;;;;;;;53.55;22.92;;;;;;;-2.58;nan;102591.59;5033860;28;20033;-71
2023/12/18 04:57:48;;;;;;;54.65;24.23;;;;;;;-2.61;nan;102602.91;5042466;28;20053;-70
2023/12/18 05:00:14;;;;;;;53.13;22.40;;;;;;;-2.82;nan;102589.44;5064551;28;20010;-69
2023/12/18 05:02:40;;;;;;;59.60;22.52;;;;;;;-2.76;nan;102600.31;5064238;28;20045;-69
2023/12/18 05:05:06;;;;;;;53.38;23.10;;;;;;;-2.79;nan;102589.25;5059556;28;20041;-70
2023/12/18 05:07:31;;;;;;;58.70;24.10;;;;;;;-2.81;nan;102591.09;5053812;28;20045;-70
2023/12/18 05:09:57;;;;;;;59.08;24.15;;;;;;;-2.77;nan;102594.34;5048112;28;20120;-69
2023/12/18 05:12:22;;;;;;;58.33;22.50;;;;;;;-2.75;nan;102597.66;5037445;28;20393;-70
2023/12/18 05:14:48;;;;;;;62.85;24.17;;;;;;;-3.11;nan;102529.16;5037389;28;20044;-70
2023/12/18 05:17:13;;;;;;;60.97;24.48;;;;;;;-2.82;nan;102581.69;5037462;28;20036;-70
2023/12/18 05:19:38;;;;;;;57.88;23.10;;;;;;;-2.91;nan;102578.78;5020593;28;20467;-69
2023/12/18 05:22:04;;;;;;;61.75;22.90;;;;;;;-2.84;nan;102588.69;5036814;28;20079;-70
2023/12/18 05:24:29;;;;;;;48.17;20.58;;;;;;;-2.83;nan;102604.97;5039361;28;20056;-70
2023/12/18 05:26:55;;;;;;;51.50;21.42;;;;;;;-2.78;nan;102611.56;5040919;28;20028;-69
2023/12/18 05:29:20;;;;;;;49.55;20.75;;;;;;;-3.33;nan;102524.28;5037393;28;20113;-70
2023/12/18 05:31:46;;;;;;;57.40;22.63;;;;;;;-2.85;nan;102584.44;5039067;28;20017;-69
2023/12/18 05:34:11;;;;;;;56.53;24.58;;;;;;;-2.87;nan;102572.56;5040179;28;20052;-69
2023/12/18 05:36:36;;;;;;;56.80;23.33;;;;;;;-2.80;nan;102569.56;5040623;28;20033;-71
2023/12/18 05:39:02;;;;;;;63.95;24.13;;;;;;;-2.72;nan;102578.63;5039714;28;20114;-70
2023/12/18 05:41:27;;;;;;;53.05;23.40;;;;;;;-2.67;nan;102580.03;5019460;28;20033;-70
2023/12/18 05:43:53;;;;;;;52.58;22.13;;;;;;;-2.67;nan;102577.44;5039989;28;20079;-69
2023/12/18 05:46:18;;;;;;;50.53;21.60;;;;;;;-2.61;nan;102581.41;5040247;28;20064;-70
2023/12/18 05:48:44;;;;;;;53.65;21.42;;;;;;;-2.61;nan;102586.56;5041452;28;20246;-70
2023/12/18 05:51:22;;;;;;;52.90;21.13;;;;;;;-2.59;nan;102582.16;5039352;28;20029;-69
2023/12/18 05:53:48;;;;;;;54.47;21.38;;;;;;;-2.64;nan;102568.69;5003486;28;20040;-70
2023/12/18 05:56:13;;;;;;;52.85;21.58;;;;;;;-2.94;nan;102524.84;5002946;28;20026;-70
2023/12/18 05:58:39;;;;;;;51.85;21.77;;;;;;;-2.70;nan;102569.88;5008829;28;20032;-70
2023/12/18 06:01:04;;;;;;;52.60;22.63;;;;;;;-2.69;nan;102570.72;5004467;28;20029;-70
2023/12/18 06:03:30;;;;;;;51.45;21.95;;;;;;;-2.64;nan;102569.53;5001810;28;20064;-70
2023/12/18 06:05:55;;;;;;;52.55;22.27;;;;;;;-2.61;nan;102576.25;4997775;28;20129;-70
2023/12/18 06:08:20;;;;;;;42.70;19.02;;;;;;;-2.61;nan;102563.38;5000470;28;20061;-70
2023/12/18 06:10:46;;;;;;;53.47;21.83;;;;;;;-2.62;nan;102570.28;4999779;28;20022;-70
2023/12/18 06:13:11;;;;;;;51.72;20.15;;;;;;;-2.59;nan;102577.84;5004597;28;20415;-69
2023/12/18 06:15:37;;;;;;;51.80;21.08;;;;;;;-2.90;nan;102534.03;4997781;28;20022;-71
2023/12/18 06:18:03;;;;;;;49.83;19.38;;;;;;;-2.75;nan;102564.16;5001198;28;20060;-70
2023/12/18 06:20:28;;;;;;;45.25;18.80;;;;;;;-2.77;nan;102584.03;4999245;28;20589;-68
2023/12/18 06:22:54;;;;;;;43.78;18.40;;;;;;;-2.87;nan;102591.44;5001858;28;20137;-69
2023/12/18 06:25:19;;;;;;;44.58;19.13;;;;;;;-3.02;nan;102563.88;4998770;28;20037;-70
2023/12/18 06:27:45;;;;;;;49.92;19.65;;;;;;;-2.89;nan;102577.78;5002515;28;20107;-70
2023/12/18 06:30:10;;;;;;;47.00;19.83;;;;;;;-2.89;nan;102585.53;5005618;28;20060;-69
2023/12/18 06:32:36;;;;;;;46.60;19.10;;;;;;;-3.01;nan;102592.16;5004926;28;20183;-71
2023/12/18 06:35:01;;;;;;;46.83;19.25;;;;;;;-3.17;nan;102590.50;5003468;28;20677;-71
2023/12/18 06:37:27;;;;;;;48.83;20.27;;;;;;;-3.09;nan;102598.63;5000903;28;20380;-71
2023/12/18 06:39:52;;;;;;;58.70;23.10;;;;;;;-3.13;nan;102595.41;5005720;28;20121;-69
2023/12/18 06:42:17;;;;;;;60.05;20.80;;;;;;;-3.12;nan;102604.78;4998690;28;20034;-71
2023/12/18 06:44:43;;;;;;;50.00;20.58;;;;;;;-3.03;nan;102618.94;5000166;28;20091;-70
2023/12/18 06:47:08;;;;;;;51.97;20.58;;;;;;;-3.01;nan;102607.63;5002519;28;20096;-71
2023/12/18 06:49:34;;;;;;;58.95;22.48;;;;;;;-3.19;nan;102576.84;4996252;28;20092;-70
2023/12/18 06:51:59;;;;;;;61.78;22.70;;;;;;;-2.90;nan;102619.94;5007338;28;20144;-69
2023/12/18 06:54:26;;;;;;;72.35;24.23;;;;;;;-2.88;nan;102614.72;5020928;28;20048;-69
2023/12/18 06:56:52;;;;;;;67.38;25.88;;;;;;;-2.92;nan;102608.03;5019151;28;20021;-69
2023/12/18 06:59:17;;;;;;;69.03;27.17;;;;;;;-2.96;nan;102602.22;5020026;28;20636;-69
2023/12/18 07:01:43;;;;;;;79.25;27.50;;;;;;;-2.95;nan;102591.00;5023197;28;20045;-71
2023/12/18 07:04:08;;;;;;;65.82;24.15;;;;;;;-2.87;nan;102598.34;5019011;28;20056;-70
2023/12/18 07:06:33;;;;;;;70.55;26.20;;;;;;;-2.80;nan;102594.53;5022203;28;20029;-70
2023/12/18 07:08:59;;;;;;;76.70;27.88;;;;;;;-2.79;nan;102612.47;5020109;28;20033;-70
2023/12/18 07:11:24;;;;;;;74.40;24.92;;;;;;;-2.74;nan;102603.66;5023916;28;20030;-69
2023/12/18 07:13:51;;;;;;;64.13;25.08;;;;;;;-2.76;nan;102606.31;5017007;28;20025;-70
2023/12/18 07:16:21;;;;;;;69.45;26.17;;;;;;;-2.79;nan;102606.47;5020958;28;20017;-71
2023/12/18 07:18:46;;;;;;;73.75;28.45;;;;;;;-2.94;nan;102603.00;5020037;28;20025;-70
2023/12/18 07:21:12;;;;;;;70.88;28.02;;;;;;;-2.97;nan;102603.13;5017762;28;20036;-69
2023/12/18 07:23:37;;;;;;;67.38;28.90;;;;;;;-3.03;nan;102591.41;5018977;28;20026;-70
2023/12/18 07:26:05;;;;;;;63.30;25.85;;;;;;;-2.95;nan;102615.94;5017408;28;20069;-72
2023/12/18 07:28:30;;;;;;;60.58;25.02;;;;;;;-2.96;nan;102612.53;5020782;28;20434;-70
2023/12/18 07:30:56;;;;;;;65.22;24.58;;;;;;;-2.95;nan;102619.34;5028221;28;20088;-70
2023/12/18 07:33:21;;;;;;;59.53;25.02;;;;;;;-3.11;nan;102590.16;5025795;28;20037;-70
2023/12/18 07:35:47;;;;;;;68.65;26.60;;;;;;;-3.05;nan;102592.41;5019022;28;20029;-71
2023/12/18 07:38:13;;;;;;;67.25;26.80;;;;;;;-2.90;nan;102599.31;5024800;28;20047;-70
2023/12/18 07:40:38;;;;;;;63.28;25.75;;;;;;;-2.78;nan;102618.44;5027191;28;20037;-71
2023/12/18 07:43:04;;;;;;;70.68;24.77;;;;;;;-2.95;nan;102579.84;5018967;28;20662;-70
2023/12/18 07:45:29;;;;;;;71.80;27.38;;;;;;;-2.73;nan;102605.31;5021195;28;20021;-70
2023/12/18 07:47:55;;;;;;;70.85;26.95;;;;;;;-2.80;nan;102585.03;5021880;28;20538;-71
2023/12/18 07:50:20;;;;;;;80.28;29.17;;;;;;;-2.62;nan;102601.22;5017946;28;20080;-71
2023/12/18 07:52:46;;;;;;;79.18;30.20;;;;;;;-2.65;nan;102587.69;5027993;28;20102;-70
2023/12/18 07:55:11;;;;;;;72.50;27.63;;;;;;;-2.58;nan;102596.75;5037563;28;20078;-70
2023/12/18 07:57:37;;;;;;;75.05;29.38;;;;;;;-2.48;nan;102600.47;5032405;28;20021;-70
2023/12/18 08:00:03;;;;;;;79.30;30.73;;;;;;;-2.49;nan;102598.81;5040218;28;20092;-70
2023/12/18 08:02:29;;;;;;;74.43;28.80;;;;;;;-2.37;nan;102603.28;5056706;28;20037;-69
2023/12/18 08:04:54;;;;;;;74.18;27.60;;;;;;;-2.34;nan;102602.28;5058133;28;20024;-70
2023/12/18 08:07:19;;;;;;;65.57;27.27;;;;;;;-2.21;nan;102592.91;5065551;28;20820;-69
2023/12/18 08:09:45;;;;;;;87.78;27.40;;;;;;;;;;5052625;28;20091;-70
2023/12/18 08:12:10;;;;;;;69.70;26.60;;;;;;;;;;5039701;28;20037;-70
2023/12/18 08:14:36;;;;;;;74.20;29.92;;;;;;;;;;5040846;28;20928;-71
2023/12/18 08:17:01;;;;;;;80.53;28.65;;;;;;;;;;5042461;28;20021;-71
2023/12/18 08:19:26;;;;;;;64.32;26.10;;;;;;;;;;5027196;28;20120;-70
2023/12/18 08:21:51;;;;;;;73.10;25.67;;;;;;;;;;5022989;28;20047;-71
2023/12/18 08:24:17;;;;;;;63.22;25.00;;;;;;;;;;5043406;28;20479;-71
2023/12/18 08:26:45;;;;;;;63.33;24.67;;;;;;;;;;5027088;28;20471;-71
2023/12/18 08:29:11;;;;;;;45.93;18.73;;;;;;;;;;5036542;28;20115;-69
2023/12/18 08:31:37;;;;;;;65.97;24.83;;;;;;;;;;5020782;28;20029;-70
2023/12/18 08:34:02;;;;;;;63.45;26.15;;;;;;;;;;5038504;28;20030;-69
2023/12/18 08:36:30;;;;;;;64.13;26.00;;;;;;;;;;5051133;28;20392;-70
2023/12/18 08:38:55;;;;;;;60.42;24.95;;;;;;;;;;5037957;28;20043;-70
2023/12/18 08:41:20;;;;;;;66.35;26.00;;;;;;;;;;5055978;28;20029;-69
2023/12/18 08:43:45;;;;;;;61.45;24.90;;;;;;;;;;5027010;28;20029;-70
2023/12/18 08:46:11;;;;;;;59.95;25.40;;;;;;;;;;5038350;28;20036;-70
2023/12/18 08:48:36;;;;;;;60.67;24.90;;;;;;;;;;5038569;28;20493;-70
2023/12/18 08:51:02;;;;;;;52.80;22.98;;;;;;;-0.56;nan;102557.16;5036873;28;20351;-70
2023/12/18 08:53:27;;;;;;;60.90;26.88;;;;;;;-0.45;nan;102571.06;5037467;28;20376;-70
2023/12/18 08:55:53;;;;;;;61.15;27.58;;;;;;;-0.22;nan;102573.91;5034935;28;20033;-71
2023/12/18 08:58:20;;;;;;;60.97;26.52;;;;;;;-0.10;nan;102585.22;5037404;28;20413;-71
2023/12/18 09:00:46;;;;;;;60.40;26.73;;;;;;;0.04;nan;102577.38;5044136;28;20052;-70
2023/12/18 09:03:11;;;;;;;62.78;26.98;;;;;;;0.11;nan;102564.84;5025655;28;20110;-70
2023/12/18 09:05:37;;;;;;;63.60;28.10;;;;;;;0.19;nan;102559.97;5044599;28;20053;-70
2023/12/18 09:08:05;;;;;;;59.63;26.88;;;;;;;0.40;nan;102570.66;5048874;28;20033;-70
2023/12/18 09:10:32;;;;;;;64.85;29.77;;;;;;;0.49;nan;102564.84;5041352;28;20029;-70
2023/12/18 09:12:58;;;;;;;60.65;28.50;;;;;;;0.38;nan;102531.03;5039027;28;20034;-70
2023/12/18 09:15:23;;;;;;;62.67;28.88;;;;;;;0.73;nan;102570.09;5042710;28;20024;-69
2023/12/18 09:17:49;;;;;;;63.08;28.73;;;;;;;0.76;nan;102550.91;5030555;28;20039;-70
2023/12/18 09:20:14;;;;;;;59.95;27.10;;;;;;;0.91;nan;102554.16;5036246;28;20421;-69
2023/12/18 09:22:40;;;;;;;58.63;28.05;;;;;;;1.03;nan;102558.47;5047070;28;20036;-69
2023/12/18 09:25:05;;;;;;;59.85;27.58;;;;;;;0.72;nan;102482.03;5040929;28;20063;-70
2023/12/18 09:27:31;;;;;;;57.25;26.77;;;;;;;1.25;nan;102550.03;5044104;28;20037;-69
2023/12/18 09:29:57;;;;;;;54.03;25.98;;;;;;;1.36;nan;102550.06;5046201;28;20036;-72
2023/12/18 09:32:23;;;;;;;55.45;25.80;;;;;;;1.41;nan;102531.53;5043314;28;20029;-71
2023/12/18 09:34:48;;;;;;;53.60;26.23;;;;;;;1.61;nan;102546.50;5022358;28;20021;-72
2023/12/18 09:37:14;;;;;;;56.65;26.48;;;;;;;1.66;nan;102540.97;5040508;28;20041;-72
2023/12/18 09:39:42;;;;;;;60.38;26.85;;;;;;;1.70;nan;102538.03;5025756;28;20033;-72
2023/12/18 09:42:11;;;;;;;55.57;27.07;;;;;;;;;;5041361;28;20039;-66
2023/12/18 09:44:37;;;;;;;53.13;26.42;;;;;;;2.06;nan;102543.16;5042018;28;20391;-66
2023/12/18 09:47:03;;;;;;;57.13;27.08;;;;;;;2.07;nan;102518.84;5046743;28;20029;-66
2023/12/18 09:49:29;;;;;;;50.88;26.30;;;;;;;2.36;nan;102539.19;5037481;28;20080;-66
2023/12/18 09:52:00;;;;;;;54.33;26.10;;;;;;;;;;5055290;28;20415;-66
2023/12/18 09:54:26;;;;;;;58.17;27.35;;;;;;;;;;5041522;28;20024;-67
2023/12/18 09:56:51;;;;;;;53.72;26.20;;;;;;;;;;5039541;28;20021;-68
2023/12/18 09:59:17;;;;;;;51.58;25.90;;;;;;;;;;5038603;28;20455;-67
2023/12/18 10:01:45;;;;;;;50.05;25.85;;;;;;;;;;5039155;28;20079;-67
2023/12/18 10:04:11;;;;;;;54.53;25.75;;;;;;;;;;5037341;28;20031;-67
2023/12/18 10:06:36;;;;;;;59.22;27.40;;;;;;;;;;5039276;28;20025;-66
2023/12/18 10:09:03;;;;;;;51.90;26.60;;;;;;;;;;5039360;28;20112;-67
2023/12/18 10:11:29;;;;;;;52.80;26.60;;;;;;;;;;5042178;28;20025;-67
2023/12/18 10:13:55;;;;;;;52.13;26.17;;;;;;;;;;5048164;28;20032;-67
2023/12/18 10:16:20;;;;;;;49.17;26.33;;;;;;;;;;5029938;28;20392;-67
2023/12/18 10:18:46;;;;;;;57.45;27.20;;;;;;;;;;5045576;28;20033;-66
2023/12/18 10:21:11;;;;;;;62.73;29.03;;;;;;;;;;5043073;28;20517;-67
2023/12/18 10:23:36;;;;;;;56.53;29.45;;;;;;;;;;5021413;28;20036;-68
2023/12/18 10:26:02;;;;;;;57.70;30.48;;;;;;;;;;5047237;28;20033;-67
2023/12/18 10:28:27;;;;;;;63.90;31.63;;;;;;;;;;5040906;28;20100;-66
2023/12/18 10:30:53;;;;;;;58.85;30.85;;;;;;;;;;5042303;28;20183;-67
2023/12/18 10:33:18;;;;;;;59.92;30.60;;;;;;;;;;5039404;28;20029;-67
2023/12/18 10:35:47;;;;;;;63.45;32.28;;;;;;;3.93;nan;102468.34;5039946;28;20155;-67
2023/12/18 10:38:19;;;;;;;58.97;31.17;;;;;;;;;;5041712;28;20071;-67
2023/12/18 10:40:44;;;;;;;64.22;33.45;;;;;;;;;;5040166;28;20032;-67
2023/12/18 10:43:27;;;;;;;60.63;31.75;;;;;;;;;;5040329;28;20382;-68
2023/12/18 10:45:52;;;;;;;63.90;31.88;;;;;;;;;;5042850;28;20083;-66
2023/12/18 10:48:18;;;;;;;62.42;30.33;;;;;;;;;;5046686;28;20034;-65
2023/12/18 10:50:44;;;;;;;61.35;29.88;;;;;;;;;;5040393;28;20025;-67
2023/12/18 10:53:11;;;;;;;56.00;29.70;;;;;;;;;;5038139;28;20049;-66
2023/12/18 10:55:37;;;;;;;57.33;30.50;;;;;;;;;;5036781;28;20107;-66
2023/12/18 10:58:04;;;;;;;51.85;28.17;;;;;;;;;;5035519;28;20100;-67
2023/12/18 11:00:31;;;;;;;50.90;26.17;;;;;;;;;;5046129;28;20029;-67
2023/12/18 11:02:56;;;;;;;44.60;24.05;;;;;;;;;;5044012;28;20029;-66
2023/12/18 11:05:23;;;;;;;46.63;24.40;;;;;;;;;;5044722;28;20029;-68
2023/12/18 11:07:49;;;;;;;47.92;25.00;;;;;;;;;;5047932;28;20273;-65
2023/12/18 11:10:15;;;;;;;44.42;22.70;;;;;;;;;;5023079;28;20509;-66
2023/12/18 11:12:41;;;;;;;43.80;23.33;;;;;;;;;;5041670;28;20024;-66
2023/12/18 11:15:45;;;;;;;44.95;24.58;;;;;;;;;;5041107;28;20582;-68
2023/12/18 11:18:22;;;;;;;47.55;23.50;;;;;;;;;;4999366;28;20030;-67
2023/12/18 11:20:49;;;;;;;46.33;24.25;;;;;;;;;;4999131;28;20130;-67
2023/12/18 11:23:16;;;;;;;43.42;22.67;;;;;;;;;;4997170;28;20033;-68
2023/12/18 11:25:46;;;;;;;43.17;22.80;;;;;;;;;;4999032;28;20034;-68
2023/12/18 11:28:12;;;;;;;44.75;23.40;;;;;;;;;;4996389;28;20037;-67
2023/12/18 11:30:42;;;;;;;47.63;23.63;;;;;;;;;;4998664;28;20029;-68
2023/12/18 11:33:11;;;;;;;46.88;24.65;;;;;;;;;;4997742;28;20050;-66
2023/12/18 11:35:36;;;;;;;;;;;;;;;;;;4999053;28;20509;-66
2023/12/18 11:38:05;;;;;;;46.22;24.45;;;;;;;;;;5000620;28;19920;-67
2023/12/18 11:40:36;;;;;;;41.53;22.93;;;;;;;;;;4998425;28;20582;-66
2023/12/18 11:43:06;;;;;;;42.05;23.15;;;;;;;;;;4998803;28;20271;-67
2023/12/18 11:45:31;;;;;;;41.35;22.10;;;;;;;;;;5002116;28;20220;-66
2023/12/18 11:48:04;;;;;;;43.22;22.42;;;;;;;;;;4999231;28;20629;-68
2023/12/18 11:50:35;;;;;;;43.08;22.90;;;;;;;;;;5037039;28;20025;-67
2023/12/18 11:53:00;;;;;;;42.85;22.67;;;;;;;;;;5037018;28;20068;-66
2023/12/18 11:55:38;;;;;;;41.38;22.45;;;;;;;;;;5034965;28;20532;-65
2023/12/18 11:58:03;;;;;;;43.20;21.65;;;;;;;;;;5041004;28;20030;-71
2023/12/18 12:00:29;;;;;;;40.70;21.50;;;;;;;;;;5039075;28;20053;-71
2023/12/18 12:02:55;;;;;;;39.50;21.02;;;;;;;;;;5037372;28;20033;-70
2023/12/18 12:05:21;;;;;;;42.42;20.90;;;;;;;;;;5038299;28;20036;-71
2023/12/18 12:07:52;;;;;;;36.00;20.00;;;;;;;;;;5034442;28;20029;-73
2023/12/18 12:10:17;;;;;;;35.95;19.65;;;;;;;;;;5033792;28;20128;-71
2023/12/18 12:12:43;;;;;;;39.45;20.05;;;;;;;;;;5037146;28;20116;-72
2023/12/18 12:15:09;;;;;;;38.50;21.30;;;;;;;;;;5036362;28;20136;-71
2023/12/18 12:17:34;;;;;;;35.53;18.95;;;;;;;;;;5024651;28;20025;-71
2023/12/18 12:20:00;;;;;;;35.38;19.25;;;;;;;;;;5037336;28;20373;-72
2023/12/18 12:22:25;;;;;;;35.83;19.67;;;;;;;;;;5037752;28;20044;-71
2023/12/18 12:24:50;;;;;;;34.63;19.00;;;;;;;;;;5023461;28;20025;-71
2023/12/18 12:27:16;;;;;;;35.67;19.33;;;;;;;;;;5039569;28;20366;-71
2023/12/18 12:29:41;;;;;;;33.67;19.30;;;;;;;;;;5039463;28;20072;-71
2023/12/18 12:32:06;;;;;;;38.05;19.50;;;;;;;;;;5037864;28;20028;-72
2023/12/18 12:34:32;;;;;;;34.03;18.10;;;;;;;;;;5036610;28;20038;-71
2023/12/18 12:37:01;;;;;;;34.45;18.33;;;;;;;;;;5036419;28;20030;-72
2023/12/18 12:39:26;;;;;;;34.45;18.95;;;;;;;;;;5036242;28;20383;-72
2023/12/18 12:41:51;;;;;;;34.97;19.05;;;;;;;;;;5038917;28;20033;-71
2023/12/18 12:44:17;;;;;;;38.33;18.25;;;;;;;;;;5035346;28;20033;-69
2023/12/18 12:46:42;;;;;;;34.75;19.45;;;;;;;;;;5038361;28;20032;-70
2023/12/18 12:49:11;;;;;;;37.72;18.52;;;;;;;;;;5041653;28;20124;-70
2023/12/18 12:51:39;;;;;;;34.75;18.17;;;;;;;;;;5037980;28;20047;-72
2023/12/18 12:54:05;;;;;;;33.30;18.10;;;;;;;;;;5022532;28;20022;-71
2023/12/18 12:56:30;;;;;;;32.70;17.75;;;;;;;;;;5039779;28;20028;-71
2023/12/18 12:58:56;;;;;;;32.28;18.08;;;;;;;;;;5037855;28;20554;-68